sensor_id;sensor_type;location;lat;lon;timestamp;P1;durP1;ratioP1;P2;durP2;ratioP2
44588;SDS011;30298;52.562;13.414;2023-03-23T00:02:10;5.20;;;2.77;;
44588;SDS011;30298;52.562;13.414;2023-03-23T00:04:35;2.63;;;2.33;;
44588;SDS011;30298;52.562;13.414;2023-03-23T00:09:28;4.70;;;2.70;;
44588;SDS011;30298;52.562;13.414;2023-03-23T00:11:54;5.03;;;2.60;;
44588;SDS011;30298;52.562;13.414;2023-03-23T00:14:22;3.88;;;2.63;;
44588;SDS011;30298;52.562;13.414;2023-03-23T00:16:48;3.90;;;2.67;;
44588;SDS011;30298;52.562;13.414;2023-03-23T00:19:14;3.05;;;2.60;;
44588;SDS011;30298;52.562;13.414;2023-03-23T00:21:40;5.65;;;2.60;;
44588;SDS011;30298;52.562;13.414;2023-03-23T00:26:32;3.90;;;2.60;;
44588;SDS011;30298;52.562;13.414;2023-03-23T00:28:59;12.77;;;2.95;;
44588;SDS011;30298;52.562;13.414;2023-03-23T00:31:25;7.10;;;3.42;;
44588;SDS011;30298;52.562;13.414;2023-03-23T00:34:02;4.25;;;2.60;;
44588;SDS011;30298;52.562;13.414;2023-03-23T00:36:29;3.83;;;2.50;;
44588;SDS011;30298;52.562;13.414;2023-03-23T00:38:54;5.47;;;2.80;;
44588;SDS011;30298;52.562;13.414;2023-03-23T00:41:24;5.03;;;2.88;;
44588;SDS011;30298;52.562;13.414;2023-03-23T00:43:52;5.55;;;2.60;;
44588;SDS011;30298;52.562;13.414;2023-03-23T00:46:17;4.85;;;2.88;;
44588;SDS011;30298;52.562;13.414;2023-03-23T00:48:42;5.20;;;2.80;;
44588;SDS011;30298;52.562;13.414;2023-03-23T00:51:09;3.85;;;2.67;;
44588;SDS011;30298;52.562;13.414;2023-03-23T00:53:37;4.28;;;2.67;;
44588;SDS011;30298;52.562;13.414;2023-03-23T00:56:02;3.20;;;2.63;;
44588;SDS011;30298;52.562;13.414;2023-03-23T00:58:27;3.47;;;2.50;;
44588;SDS011;30298;52.562;13.414;2023-03-23T01:00:53;5.20;;;3.27;;
44588;SDS011;30298;52.562;13.414;2023-03-23T01:03:18;5.35;;;3.05;;
44588;SDS011;30298;52.562;13.414;2023-03-23T01:05:44;3.30;;;2.60;;
44588;SDS011;30298;52.562;13.414;2023-03-23T01:08:12;4.93;;;2.70;;
44588;SDS011;30298;52.562;13.414;2023-03-23T01:13:04;4.18;;;2.40;;
44588;SDS011;30298;52.562;13.414;2023-03-23T01:15:30;3.83;;;2.60;;
44588;SDS011;30298;52.562;13.414;2023-03-23T01:17:56;7.10;;;2.70;;
44588;SDS011;30298;52.562;13.414;2023-03-23T01:20:22;3.28;;;2.55;;
44588;SDS011;30298;52.562;13.414;2023-03-23T01:22:47;2.92;;;2.55;;
44588;SDS011;30298;52.562;13.414;2023-03-23T01:25:13;3.27;;;2.70;;
44588;SDS011;30298;52.562;13.414;2023-03-23T01:27:39;4.72;;;3.00;;
44588;SDS011;30298;52.562;13.414;2023-03-23T01:30:06;3.90;;;2.92;;
44588;SDS011;30298;52.562;13.414;2023-03-23T01:32:32;4.10;;;2.55;;
44588;SDS011;30298;52.562;13.414;2023-03-23T01:34:58;4.55;;;3.10;;
44588;SDS011;30298;52.562;13.414;2023-03-23T01:37:23;5.90;;;3.43;;
44588;SDS011;30298;52.562;13.414;2023-03-23T01:39:52;6.40;;;2.70;;
44588;SDS011;30298;52.562;13.414;2023-03-23T01:42:18;5.22;;;3.25;;
44588;SDS011;30298;52.562;13.414;2023-03-23T01:47:11;3.47;;;2.70;;
44588;SDS011;30298;52.562;13.414;2023-03-23T01:49:38;5.20;;;2.90;;
44588;SDS011;30298;52.562;13.414;2023-03-23T01:52:10;5.07;;;2.95;;
44588;SDS011;30298;52.562;13.414;2023-03-23T01:54:38;4.15;;;2.67;;
44588;SDS011;30298;52.562;13.414;2023-03-23T01:59:30;5.20;;;2.70;;
44588;SDS011;30298;52.562;13.414;2023-03-23T02:01:56;6.38;;;3.78;;
44588;SDS011;30298;52.562;13.414;2023-03-23T02:04:22;6.67;;;2.90;;
44588;SDS011;30298;52.562;13.414;2023-03-23T02:06:48;7.78;;;2.65;;
44588;SDS011;30298;52.562;13.414;2023-03-23T02:09:14;5.13;;;2.47;;
44588;SDS011;30298;52.562;13.414;2023-03-23T02:11:42;3.45;;;2.60;;
44588;SDS011;30298;52.562;13.414;2023-03-23T02:14:07;3.90;;;2.80;;
44588;SDS011;30298;52.562;13.414;2023-03-23T02:29:58;4.77;;;2.57;;
44588;SDS011;30298;52.562;13.414;2023-03-23T02:32:45;4.97;;;2.55;;
44588;SDS011;30298;52.562;13.414;2023-03-23T02:35:22;3.55;;;2.55;;
44588;SDS011;30298;52.562;13.414;2023-03-23T02:37:50;3.63;;;2.65;;
44588;SDS011;30298;52.562;13.414;2023-03-23T02:40:18;4.82;;;2.80;;
44588;SDS011;30298;52.562;13.414;2023-03-23T02:42:45;7.10;;;2.92;;
44588;SDS011;30298;52.562;13.414;2023-03-23T02:45:11;3.58;;;2.90;;
44588;SDS011;30298;52.562;13.414;2023-03-23T02:47:38;5.00;;;2.70;;
44588;SDS011;30298;52.562;13.414;2023-03-23T02:50:05;3.22;;;2.40;;
44588;SDS011;30298;52.562;13.414;2023-03-23T02:52:32;6.10;;;2.90;;
44588;SDS011;30298;52.562;13.414;2023-03-23T02:54:58;5.13;;;2.70;;
44588;SDS011;30298;52.562;13.414;2023-03-23T02:57:24;3.60;;;2.55;;
44588;SDS011;30298;52.562;13.414;2023-03-23T02:59:51;4.60;;;2.58;;
44588;SDS011;30298;52.562;13.414;2023-03-23T03:02:29;6.93;;;3.08;;
44588;SDS011;30298;52.562;13.414;2023-03-23T03:10:32;3.85;;;3.05;;
44588;SDS011;30298;52.562;13.414;2023-03-23T03:13:02;3.00;;;2.42;;
44588;SDS011;30298;52.562;13.414;2023-03-23T03:15:31;3.60;;;2.65;;
44588;SDS011;30298;52.562;13.414;2023-03-23T03:18:12;2.63;;;2.30;;
44588;SDS011;30298;52.562;13.414;2023-03-23T03:20:43;4.88;;;2.50;;
44588;SDS011;30298;52.562;13.414;2023-03-23T03:23:10;3.30;;;2.70;;
44588;SDS011;30298;52.562;13.414;2023-03-23T03:25:37;4.68;;;2.40;;
44588;SDS011;30298;52.562;13.414;2023-03-23T03:28:03;3.70;;;2.97;;
44588;SDS011;30298;52.562;13.414;2023-03-23T03:30:30;2.60;;;2.40;;
44588;SDS011;30298;52.562;13.414;2023-03-23T03:32:58;5.07;;;2.53;;
44588;SDS011;30298;52.562;13.414;2023-03-23T03:35:28;4.50;;;2.28;;
44588;SDS011;30298;52.562;13.414;2023-03-23T03:37:54;6.32;;;2.60;;
44588;SDS011;30298;52.562;13.414;2023-03-23T03:40:20;8.00;;;2.92;;
44588;SDS011;30298;52.562;13.414;2023-03-23T03:42:47;6.18;;;2.72;;
44588;SDS011;30298;52.562;13.414;2023-03-23T03:45:14;3.08;;;2.50;;
44588;SDS011;30298;52.562;13.414;2023-03-23T03:47:39;4.13;;;2.70;;
44588;SDS011;30298;52.562;13.414;2023-03-23T03:50:05;4.67;;;3.43;;
44588;SDS011;30298;52.562;13.414;2023-03-23T03:52:30;3.55;;;2.65;;
44588;SDS011;30298;52.562;13.414;2023-03-23T03:54:56;3.97;;;2.53;;
44588;SDS011;30298;52.562;13.414;2023-03-23T03:57:22;5.03;;;2.60;;
44588;SDS011;30298;52.562;13.414;2023-03-23T03:59:47;4.30;;;2.77;;
44588;SDS011;30298;52.562;13.414;2023-03-23T04:02:12;4.73;;;3.10;;
44588;SDS011;30298;52.562;13.414;2023-03-23T04:04:41;6.03;;;2.83;;
44588;SDS011;30298;52.562;13.414;2023-03-23T04:07:06;5.30;;;2.63;;
44588;SDS011;30298;52.562;13.414;2023-03-23T04:09:32;4.63;;;2.85;;
44588;SDS011;30298;52.562;13.414;2023-03-23T04:11:57;6.37;;;2.67;;
44588;SDS011;30298;52.562;13.414;2023-03-23T04:14:22;3.07;;;2.30;;
44588;SDS011;30298;52.562;13.414;2023-03-23T04:16:48;3.90;;;2.93;;
44588;SDS011;30298;52.562;13.414;2023-03-23T04:19:17;6.65;;;2.60;;
44588;SDS011;30298;52.562;13.414;2023-03-23T04:21:43;4.03;;;2.60;;
44588;SDS011;30298;52.562;13.414;2023-03-23T04:24:10;6.40;;;2.50;;
44588;SDS011;30298;52.562;13.414;2023-03-23T04:26:36;4.00;;;2.70;;
44588;SDS011;30298;52.562;13.414;2023-03-23T04:29:02;4.67;;;2.97;;
44588;SDS011;30298;52.562;13.414;2023-03-23T04:31:27;3.92;;;3.10;;
44588;SDS011;30298;52.562;13.414;2023-03-23T04:33:53;4.83;;;2.57;;
44588;SDS011;30298;52.562;13.414;2023-03-23T04:36:18;4.67;;;2.60;;
44588;SDS011;30298;52.562;13.414;2023-03-23T04:38:44;3.88;;;3.22;;
44588;SDS011;30298;52.562;13.414;2023-03-23T04:41:10;4.03;;;3.10;;
44588;SDS011;30298;52.562;13.414;2023-03-23T04:43:35;5.90;;;3.47;;
44588;SDS011;30298;52.562;13.414;2023-03-23T04:46:07;6.80;;;3.47;;
44588;SDS011;30298;52.562;13.414;2023-03-23T04:48:33;5.85;;;3.47;;
44588;SDS011;30298;52.562;13.414;2023-03-23T04:51:00;5.50;;;2.72;;
44588;SDS011;30298;52.562;13.414;2023-03-23T04:53:27;5.75;;;2.75;;
44588;SDS011;30298;52.562;13.414;2023-03-23T04:55:52;3.97;;;3.10;;
44588;SDS011;30298;52.562;13.414;2023-03-23T04:58:18;4.47;;;3.20;;
44588;SDS011;30298;52.562;13.414;2023-03-23T05:03:14;5.30;;;2.80;;
44588;SDS011;30298;52.562;13.414;2023-03-23T05:05:41;5.75;;;3.67;;
44588;SDS011;30298;52.562;13.414;2023-03-23T05:08:07;4.50;;;3.50;;
44588;SDS011;30298;52.562;13.414;2023-03-23T05:10:32;4.63;;;3.03;;
44588;SDS011;30298;52.562;13.414;2023-03-23T05:12:57;5.50;;;4.10;;
44588;SDS011;30298;52.562;13.414;2023-03-23T05:15:22;5.50;;;3.60;;
44588;SDS011;30298;52.562;13.414;2023-03-23T05:17:48;5.10;;;4.10;;
44588;SDS011;30298;52.562;13.414;2023-03-23T05:20:17;4.35;;;3.55;;
44588;SDS011;30298;52.562;13.414;2023-03-23T05:22:45;7.40;;;4.25;;
44588;SDS011;30298;52.562;13.414;2023-03-23T05:25:13;5.00;;;3.83;;
44588;SDS011;30298;52.562;13.414;2023-03-23T05:27:39;4.75;;;3.67;;
44588;SDS011;30298;52.562;13.414;2023-03-23T05:30:07;8.43;;;4.35;;
44588;SDS011;30298;52.562;13.414;2023-03-23T05:32:33;8.95;;;3.72;;
44588;SDS011;30298;52.562;13.414;2023-03-23T05:34:59;5.27;;;3.80;;
44588;SDS011;30298;52.562;13.414;2023-03-23T05:37:25;5.97;;;3.90;;
44588;SDS011;30298;52.562;13.414;2023-03-23T05:39:51;5.78;;;3.35;;
44588;SDS011;30298;52.562;13.414;2023-03-23T05:42:19;5.68;;;3.63;;
44588;SDS011;30298;52.562;13.414;2023-03-23T05:44:44;4.50;;;3.50;;
44588;SDS011;30298;52.562;13.414;2023-03-23T05:47:10;4.50;;;3.75;;
44588;SDS011;30298;52.562;13.414;2023-03-23T05:49:35;6.65;;;4.25;;
44588;SDS011;30298;52.562;13.414;2023-03-23T05:52:01;6.82;;;3.40;;
44588;SDS011;30298;52.562;13.414;2023-03-23T05:54:26;7.03;;;4.43;;
44588;SDS011;30298;52.562;13.414;2023-03-23T05:56:52;4.60;;;3.70;;
44588;SDS011;30298;52.562;13.414;2023-03-23T05:59:17;6.70;;;3.45;;
44588;SDS011;30298;52.562;13.414;2023-03-23T06:01:42;5.30;;;3.40;;
44588;SDS011;30298;52.562;13.414;2023-03-23T06:04:08;5.33;;;3.37;;
44588;SDS011;30298;52.562;13.414;2023-03-23T06:06:34;6.53;;;3.40;;
44588;SDS011;30298;52.562;13.414;2023-03-23T06:09:00;8.60;;;4.00;;
44588;SDS011;30298;52.562;13.414;2023-03-23T06:11:25;4.68;;;3.63;;
44588;SDS011;30298;52.562;13.414;2023-03-23T06:13:51;5.70;;;3.50;;
44588;SDS011;30298;52.562;13.414;2023-03-23T06:16:17;8.25;;;3.80;;
44588;SDS011;30298;52.562;13.414;2023-03-23T06:18:42;4.50;;;3.77;;
44588;SDS011;30298;52.562;13.414;2023-03-23T06:21:08;7.45;;;3.65;;
44588;SDS011;30298;52.562;13.414;2023-03-23T06:23:34;8.40;;;3.90;;
44588;SDS011;30298;52.562;13.414;2023-03-23T06:26:00;5.72;;;3.72;;
44588;SDS011;30298;52.562;13.414;2023-03-23T06:28:26;7.30;;;3.40;;
44588;SDS011;30298;52.562;13.414;2023-03-23T06:30:51;4.72;;;3.42;;
44588;SDS011;30298;52.562;13.414;2023-03-23T06:33:17;5.78;;;3.45;;
44588;SDS011;30298;52.562;13.414;2023-03-23T06:35:43;5.03;;;3.33;;
44588;SDS011;30298;52.562;13.414;2023-03-23T06:38:08;8.60;;;3.80;;
44588;SDS011;30298;52.562;13.414;2023-03-23T06:40:33;5.07;;;3.37;;
44588;SDS011;30298;52.562;13.414;2023-03-23T06:43:00;4.35;;;3.60;;
44588;SDS011;30298;52.562;13.414;2023-03-23T06:45:26;6.67;;;4.03;;
44588;SDS011;30298;52.562;13.414;2023-03-23T06:47:51;6.33;;;3.63;;
44588;SDS011;30298;52.562;13.414;2023-03-23T06:50:17;5.50;;;3.58;;
44588;SDS011;30298;52.562;13.414;2023-03-23T06:52:45;7.43;;;3.47;;
44588;SDS011;30298;52.562;13.414;2023-03-23T06:55:11;6.70;;;3.45;;
44588;SDS011;30298;52.562;13.414;2023-03-23T06:57:36;8.57;;;3.67;;
44588;SDS011;30298;52.562;13.414;2023-03-23T07:00:02;6.87;;;3.10;;
44588;SDS011;30298;52.562;13.414;2023-03-23T07:02:39;6.57;;;3.63;;
44588;SDS011;30298;52.562;13.414;2023-03-23T07:07:29;5.47;;;3.42;;
44588;SDS011;30298;52.562;13.414;2023-03-23T07:09:55;4.67;;;3.70;;
44588;SDS011;30298;52.562;13.414;2023-03-23T07:12:21;8.32;;;3.78;;
44588;SDS011;30298;52.562;13.414;2023-03-23T07:14:46;6.07;;;3.58;;
44588;SDS011;30298;52.562;13.414;2023-03-23T07:17:12;6.40;;;3.50;;
44588;SDS011;30298;52.562;13.414;2023-03-23T07:19:37;6.40;;;4.00;;
44588;SDS011;30298;52.562;13.414;2023-03-23T07:22:04;8.10;;;3.67;;
44588;SDS011;30298;52.562;13.414;2023-03-23T07:24:30;6.00;;;3.80;;
44588;SDS011;30298;52.562;13.414;2023-03-23T07:26:55;5.93;;;3.63;;
44588;SDS011;30298;52.562;13.414;2023-03-23T07:29:21;5.83;;;3.30;;
44588;SDS011;30298;52.562;13.414;2023-03-23T07:31:46;7.93;;;4.27;;
44588;SDS011;30298;52.562;13.414;2023-03-23T07:34:11;8.30;;;4.32;;
44588;SDS011;30298;52.562;13.414;2023-03-23T07:36:37;6.33;;;4.10;;
44588;SDS011;30298;52.562;13.414;2023-03-23T07:39:04;6.80;;;3.97;;
44588;SDS011;30298;52.562;13.414;2023-03-23T07:41:31;5.63;;;3.78;;
44588;SDS011;30298;52.562;13.414;2023-03-23T07:43:56;8.60;;;4.22;;
44588;SDS011;30298;52.562;13.414;2023-03-23T07:46:21;4.70;;;3.23;;
44588;SDS011;30298;52.562;13.414;2023-03-23T07:48:47;5.63;;;4.27;;
44588;SDS011;30298;52.562;13.414;2023-03-23T07:51:12;6.93;;;3.95;;
44588;SDS011;30298;52.562;13.414;2023-03-23T07:53:38;8.23;;;4.33;;
44588;SDS011;30298;52.562;13.414;2023-03-23T07:56:03;12.17;;;5.10;;
44588;SDS011;30298;52.562;13.414;2023-03-23T07:58:29;5.40;;;3.90;;
44588;SDS011;30298;52.562;13.414;2023-03-23T08:00:54;10.53;;;5.27;;
44588;SDS011;30298;52.562;13.414;2023-03-23T08:03:22;8.52;;;4.30;;
44588;SDS011;30298;52.562;13.414;2023-03-23T08:05:48;5.20;;;3.70;;
44588;SDS011;30298;52.562;13.414;2023-03-23T08:08:13;9.53;;;4.47;;
44588;SDS011;30298;52.562;13.414;2023-03-23T08:10:39;8.27;;;4.60;;
44588;SDS011;30298;52.562;13.414;2023-03-23T08:13:05;5.80;;;3.97;;
44588;SDS011;30298;52.562;13.414;2023-03-23T08:15:31;5.78;;;3.97;;
44588;SDS011;30298;52.562;13.414;2023-03-23T08:17:57;5.53;;;3.30;;
44588;SDS011;30298;52.562;13.414;2023-03-23T08:20:23;11.50;;;5.65;;
44588;SDS011;30298;52.562;13.414;2023-03-23T08:22:53;5.45;;;3.40;;
44588;SDS011;30298;52.562;13.414;2023-03-23T08:25:20;6.78;;;3.80;;
44588;SDS011;30298;52.562;13.414;2023-03-23T08:27:46;7.18;;;4.05;;
44588;SDS011;30298;52.562;13.414;2023-03-23T08:30:13;5.17;;;3.70;;
44588;SDS011;30298;52.562;13.414;2023-03-23T08:32:39;5.80;;;3.60;;
44588;SDS011;30298;52.562;13.414;2023-03-23T08:35:05;6.93;;;3.97;;
44588;SDS011;30298;52.562;13.414;2023-03-23T08:37:30;5.85;;;3.22;;
44588;SDS011;30298;52.562;13.414;2023-03-23T08:39:56;4.70;;;2.87;;
44588;SDS011;30298;52.562;13.414;2023-03-23T08:42:23;4.50;;;3.40;;
44588;SDS011;30298;52.562;13.414;2023-03-23T08:47:13;4.60;;;3.25;;
44588;SDS011;30298;52.562;13.414;2023-03-23T08:49:39;5.20;;;3.47;;
44588;SDS011;30298;52.562;13.414;2023-03-23T08:52:04;6.10;;;3.33;;
44588;SDS011;30298;52.562;13.414;2023-03-23T08:54:30;6.82;;;3.13;;
44588;SDS011;30298;52.562;13.414;2023-03-23T08:56:58;7.27;;;3.10;;
44588;SDS011;30298;52.562;13.414;2023-03-23T08:59:25;8.95;;;3.55;;
44588;SDS011;30298;52.562;13.414;2023-03-23T09:01:51;7.68;;;3.60;;
44588;SDS011;30298;52.562;13.414;2023-03-23T09:04:16;5.40;;;3.47;;
44588;SDS011;30298;52.562;13.414;2023-03-23T09:06:41;5.28;;;3.13;;
44588;SDS011;30298;52.562;13.414;2023-03-23T09:09:07;5.72;;;3.20;;
44588;SDS011;30298;52.562;13.414;2023-03-23T09:11:34;4.53;;;2.67;;
44588;SDS011;30298;52.562;13.414;2023-03-23T09:16:26;5.63;;;3.20;;
44588;SDS011;30298;52.562;13.414;2023-03-23T09:18:51;7.75;;;2.78;;
44588;SDS011;30298;52.562;13.414;2023-03-23T09:21:17;4.43;;;2.97;;
44588;SDS011;30298;52.562;13.414;2023-03-23T09:23:42;4.47;;;2.90;;
44588;SDS011;30298;52.562;13.414;2023-03-23T09:26:09;5.80;;;3.50;;
44588;SDS011;30298;52.562;13.414;2023-03-23T09:28:34;6.03;;;3.37;;
44588;SDS011;30298;52.562;13.414;2023-03-23T09:31:00;7.28;;;3.00;;
44588;SDS011;30298;52.562;13.414;2023-03-23T09:33:25;3.70;;;2.43;;
44588;SDS011;30298;52.562;13.414;2023-03-23T09:35:51;4.70;;;2.97;;
44588;SDS011;30298;52.562;13.414;2023-03-23T09:38:17;4.07;;;2.88;;
44588;SDS011;30298;52.562;13.414;2023-03-23T09:46:20;6.03;;;2.88;;
44588;SDS011;30298;52.562;13.414;2023-03-23T09:48:51;6.20;;;2.63;;
44588;SDS011;30298;52.562;13.414;2023-03-23T09:51:21;4.60;;;2.70;;
44588;SDS011;30298;52.562;13.414;2023-03-23T09:53:51;4.93;;;2.40;;
44588;SDS011;30298;52.562;13.414;2023-03-23T09:56:17;6.25;;;2.80;;
44588;SDS011;30298;52.562;13.414;2023-03-23T10:01:36;4.65;;;2.63;;
44588;SDS011;30298;52.562;13.414;2023-03-23T10:04:05;3.45;;;2.65;;
44588;SDS011;30298;52.562;13.414;2023-03-23T10:06:32;3.85;;;2.70;;
44588;SDS011;30298;52.562;13.414;2023-03-23T10:08:58;3.33;;;2.63;;
44588;SDS011;30298;52.562;13.414;2023-03-23T10:16:37;3.28;;;2.22;;
44588;SDS011;30298;52.562;13.414;2023-03-23T10:19:08;5.07;;;2.95;;
44588;SDS011;30298;52.562;13.414;2023-03-23T10:21:35;2.97;;;2.58;;
44588;SDS011;30298;52.562;13.414;2023-03-23T10:24:03;4.72;;;3.00;;
44588;SDS011;30298;52.562;13.414;2023-03-23T10:28:57;4.97;;;2.90;;
44588;SDS011;30298;52.562;13.414;2023-03-23T10:31:26;3.10;;;2.38;;
44588;SDS011;30298;52.562;13.414;2023-03-23T10:33:54;3.53;;;2.42;;
44588;SDS011;30298;52.562;13.414;2023-03-23T10:39:04;3.10;;;2.05;;
44588;SDS011;30298;52.562;13.414;2023-03-23T10:41:33;4.47;;;2.35;;
44588;SDS011;30298;52.562;13.414;2023-03-23T10:44:21;4.35;;;1.90;;
44588;SDS011;30298;52.562;13.414;2023-03-23T10:52:19;3.70;;;1.90;;
44588;SDS011;30298;52.562;13.414;2023-03-23T10:54:49;4.43;;;2.20;;
44588;SDS011;30298;52.562;13.414;2023-03-23T10:57:22;3.58;;;1.98;;
44588;SDS011;30298;52.562;13.414;2023-03-23T10:59:49;3.00;;;2.30;;
44588;SDS011;30298;52.562;13.414;2023-03-23T11:02:16;3.60;;;2.10;;
44588;SDS011;30298;52.562;13.414;2023-03-23T11:04:46;3.80;;;2.15;;
44588;SDS011;30298;52.562;13.414;2023-03-23T11:07:17;2.95;;;2.10;;
44588;SDS011;30298;52.562;13.414;2023-03-23T11:09:54;3.80;;;2.50;;
44588;SDS011;30298;52.562;13.414;2023-03-23T11:12:20;3.97;;;2.20;;
44588;SDS011;30298;52.562;13.414;2023-03-23T11:14:48;2.50;;;2.00;;
44588;SDS011;30298;52.562;13.414;2023-03-23T11:17:20;3.40;;;1.80;;
44588;SDS011;30298;52.562;13.414;2023-03-23T11:19:46;3.47;;;2.25;;
44588;SDS011;30298;52.562;13.414;2023-03-23T11:22:28;3.30;;;2.40;;
44588;SDS011;30298;52.562;13.414;2023-03-23T11:24:55;2.92;;;2.13;;
44588;SDS011;30298;52.562;13.414;2023-03-23T11:27:21;4.18;;;2.20;;
44588;SDS011;30298;52.562;13.414;2023-03-23T11:29:52;2.75;;;2.03;;
44588;SDS011;30298;52.562;13.414;2023-03-23T11:32:51;4.88;;;2.20;;
44588;SDS011;30298;52.562;13.414;2023-03-23T11:35:20;3.30;;;2.10;;
44588;SDS011;30298;52.562;13.414;2023-03-23T11:37:51;2.70;;;2.05;;
44588;SDS011;30298;52.562;13.414;2023-03-23T11:40:21;5.10;;;2.13;;
44588;SDS011;30298;52.562;13.414;2023-03-23T11:42:56;3.45;;;1.98;;
44588;SDS011;30298;52.562;13.414;2023-03-23T11:45:45;4.45;;;2.35;;
44588;SDS011;30298;52.562;13.414;2023-03-23T11:48:27;3.53;;;2.20;;
44588;SDS011;30298;52.562;13.414;2023-03-23T11:51:08;3.63;;;2.40;;
44588;SDS011;30298;52.562;13.414;2023-03-23T11:56:25;4.22;;;2.25;;
44588;SDS011;30298;52.562;13.414;2023-03-23T11:58:51;4.00;;;2.63;;
44588;SDS011;30298;52.562;13.414;2023-03-23T12:01:53;4.00;;;2.20;;
44588;SDS011;30298;52.562;13.414;2023-03-23T12:12:35;3.25;;;2.10;;
44588;SDS011;30298;52.562;13.414;2023-03-23T12:17:29;6.05;;;2.30;;
44588;SDS011;30298;52.562;13.414;2023-03-23T12:20:13;2.85;;;2.10;;
44588;SDS011;30298;52.562;13.414;2023-03-23T12:30:49;4.50;;;2.35;;
44588;SDS011;30298;52.562;13.414;2023-03-23T12:38:39;3.42;;;2.10;;
44588;SDS011;30298;52.562;13.414;2023-03-23T12:41:15;2.78;;;2.00;;
44588;SDS011;30298;52.562;13.414;2023-03-23T12:46:25;3.05;;;2.00;;
44588;SDS011;30298;52.562;13.414;2023-03-23T12:51:34;4.47;;;2.08;;
44588;SDS011;30298;52.562;13.414;2023-03-23T13:04:47;3.80;;;2.30;;
44588;SDS011;30298;52.562;13.414;2023-03-23T13:07:17;3.67;;;1.88;;
44588;SDS011;30298;52.562;13.414;2023-03-23T13:12:17;2.97;;;2.08;;
44588;SDS011;30298;52.562;13.414;2023-03-23T13:22:17;1.87;;;1.67;;
44588;SDS011;30298;52.562;13.414;2023-03-23T13:24:51;4.32;;;2.47;;
44588;SDS011;30298;52.562;13.414;2023-03-23T13:27:17;3.17;;;1.90;;
44588;SDS011;30298;52.562;13.414;2023-03-23T13:29:45;5.15;;;2.10;;
44588;SDS011;30298;52.562;13.414;2023-03-23T13:32:18;4.47;;;2.22;;
44588;SDS011;30298;52.562;13.414;2023-03-23T13:34:44;3.30;;;1.88;;
44588;SDS011;30298;52.562;13.414;2023-03-23T13:37:21;4.65;;;2.00;;
44588;SDS011;30298;52.562;13.414;2023-03-23T13:39:49;5.10;;;1.90;;
44588;SDS011;30298;52.562;13.414;2023-03-23T13:49:58;3.97;;;2.00;;
44588;SDS011;30298;52.562;13.414;2023-03-23T13:55:17;2.75;;;1.85;;
44588;SDS011;30298;52.562;13.414;2023-03-23T14:02:49;7.88;;;2.22;;
44588;SDS011;30298;52.562;13.414;2023-03-23T14:07:59;4.15;;;1.80;;
44588;SDS011;30298;52.562;13.414;2023-03-23T14:10:31;2.55;;;1.80;;
44588;SDS011;30298;52.562;13.414;2023-03-23T14:12:58;3.80;;;1.70;;
44588;SDS011;30298;52.562;13.414;2023-03-23T14:15:27;3.00;;;2.22;;
44588;SDS011;30298;52.562;13.414;2023-03-23T14:17:53;2.75;;;1.70;;
44588;SDS011;30298;52.562;13.414;2023-03-23T14:20:26;4.20;;;1.90;;
44588;SDS011;30298;52.562;13.414;2023-03-23T14:22:54;3.65;;;2.05;;
44588;SDS011;30298;52.562;13.414;2023-03-23T14:25:20;3.10;;;1.95;;
44588;SDS011;30298;52.562;13.414;2023-03-23T14:27:47;3.30;;;1.70;;
44588;SDS011;30298;52.562;13.414;2023-03-23T14:30:14;3.13;;;1.85;;
44588;SDS011;30298;52.562;13.414;2023-03-23T14:32:39;4.15;;;1.73;;
44588;SDS011;30298;52.562;13.414;2023-03-23T14:35:07;7.97;;;1.90;;
44588;SDS011;30298;52.562;13.414;2023-03-23T14:37:33;4.90;;;2.60;;
44588;SDS011;30298;52.562;13.414;2023-03-23T14:40:00;3.80;;;2.22;;
44588;SDS011;30298;52.562;13.414;2023-03-23T14:42:29;2.97;;;2.05;;
44588;SDS011;30298;52.562;13.414;2023-03-23T14:44:55;5.57;;;2.30;;
44588;SDS011;30298;52.562;13.414;2023-03-23T14:47:22;2.75;;;1.85;;
44588;SDS011;30298;52.562;13.414;2023-03-23T14:49:52;4.03;;;1.80;;
44588;SDS011;30298;52.562;13.414;2023-03-23T14:52:18;6.07;;;2.33;;
44588;SDS011;30298;52.562;13.414;2023-03-23T14:54:44;2.70;;;1.80;;
44588;SDS011;30298;52.562;13.414;2023-03-23T14:59:35;3.72;;;1.95;;
44588;SDS011;30298;52.562;13.414;2023-03-23T15:02:00;3.23;;;2.00;;
44588;SDS011;30298;52.562;13.414;2023-03-23T15:04:26;6.22;;;2.33;;
44588;SDS011;30298;52.562;13.414;2023-03-23T15:06:57;2.50;;;1.60;;
44588;SDS011;30298;52.562;13.414;2023-03-23T15:09:24;4.07;;;1.90;;
44588;SDS011;30298;52.562;13.414;2023-03-23T15:11:56;2.75;;;1.58;;
44588;SDS011;30298;52.562;13.414;2023-03-23T15:14:23;2.67;;;1.70;;
44588;SDS011;30298;52.562;13.414;2023-03-23T15:16:52;5.20;;;2.08;;
44588;SDS011;30298;52.562;13.414;2023-03-23T15:19:21;6.25;;;2.10;;
44588;SDS011;30298;52.562;13.414;2023-03-23T15:21:52;4.47;;;2.38;;
44588;SDS011;30298;52.562;13.414;2023-03-23T15:24:37;3.58;;;1.90;;
44588;SDS011;30298;52.562;13.414;2023-03-23T15:27:14;5.00;;;2.00;;
44588;SDS011;30298;52.562;13.414;2023-03-23T15:29:46;3.65;;;2.00;;
44588;SDS011;30298;52.562;13.414;2023-03-23T15:32:11;3.55;;;1.85;;
44588;SDS011;30298;52.562;13.414;2023-03-23T15:37:15;3.17;;;1.90;;
44588;SDS011;30298;52.562;13.414;2023-03-23T15:39:42;6.10;;;2.15;;
44588;SDS011;30298;52.562;13.414;2023-03-23T15:42:18;5.32;;;2.00;;
44588;SDS011;30298;52.562;13.414;2023-03-23T15:44:45;3.03;;;1.85;;
44588;SDS011;30298;52.562;13.414;2023-03-23T15:47:20;4.28;;;2.15;;
44588;SDS011;30298;52.562;13.414;2023-03-23T15:49:46;4.00;;;1.90;;
44588;SDS011;30298;52.562;13.414;2023-03-23T15:52:12;5.43;;;1.90;;
44588;SDS011;30298;52.562;13.414;2023-03-23T15:54:38;6.40;;;2.83;;
44588;SDS011;30298;52.562;13.414;2023-03-23T15:59:29;3.07;;;1.90;;
44588;SDS011;30298;52.562;13.414;2023-03-23T16:01:54;5.82;;;2.00;;
44588;SDS011;30298;52.562;13.414;2023-03-23T16:04:20;4.72;;;2.10;;
44588;SDS011;30298;52.562;13.414;2023-03-23T16:06:46;2.72;;;1.70;;
44588;SDS011;30298;52.562;13.414;2023-03-23T16:09:16;3.75;;;1.98;;
44588;SDS011;30298;52.562;13.414;2023-03-23T16:11:41;3.72;;;2.13;;
44588;SDS011;30298;52.562;13.414;2023-03-23T16:14:07;4.60;;;2.30;;
44588;SDS011;30298;52.562;13.414;2023-03-23T16:19:04;2.50;;;1.80;;
44588;SDS011;30298;52.562;13.414;2023-03-23T16:21:30;5.25;;;2.58;;
44588;SDS011;30298;52.562;13.414;2023-03-23T16:23:55;2.80;;;1.95;;
44588;SDS011;30298;52.562;13.414;2023-03-23T16:26:20;4.47;;;2.00;;
44588;SDS011;30298;52.562;13.414;2023-03-23T16:28:46;4.83;;;2.33;;
44588;SDS011;30298;52.562;13.414;2023-03-23T16:31:11;6.30;;;1.93;;
44588;SDS011;30298;52.562;13.414;2023-03-23T16:33:36;2.58;;;1.80;;
44588;SDS011;30298;52.562;13.414;2023-03-23T16:36:02;6.00;;;2.10;;
44588;SDS011;30298;52.562;13.414;2023-03-23T16:38:27;4.97;;;2.10;;
44588;SDS011;30298;52.562;13.414;2023-03-23T16:40:53;5.18;;;2.00;;
44588;SDS011;30298;52.562;13.414;2023-03-23T16:43:18;5.50;;;2.03;;
44588;SDS011;30298;52.562;13.414;2023-03-23T16:45:45;3.03;;;1.90;;
44588;SDS011;30298;52.562;13.414;2023-03-23T16:48:11;3.80;;;1.98;;
44588;SDS011;30298;52.562;13.414;2023-03-23T16:50:37;4.07;;;2.35;;
44588;SDS011;30298;52.562;13.414;2023-03-23T16:53:03;5.63;;;2.00;;
44588;SDS011;30298;52.562;13.414;2023-03-23T16:57:53;4.25;;;2.40;;
44588;SDS011;30298;52.562;13.414;2023-03-23T17:00:19;6.47;;;2.20;;
44588;SDS011;30298;52.562;13.414;2023-03-23T17:02:54;5.65;;;2.35;;
44588;SDS011;30298;52.562;13.414;2023-03-23T17:05:22;4.50;;;2.15;;